Terminal Aerodrome Forecast
Issued by NWS Cleveland, OH

Home | Current Version | Previous Version | Text Only | Print | Product List | Glossary On
Versions: 1 2 3 4 5 6 7 8 9 10 11 12 13 14 15 16 17 18 19 20 21 22 23 24 25 26 27
917
FTUS41 KCLE 300540
TAFCLE
TAF
KCLE 300540Z 3006/3112 20010KT P6SM SCT050 BKN100
     FM300700 20010KT P6SM VCSH SCT050 BKN120
      TEMPO 3007/3010 6SM -SHRA BKN060
     FM301000 21008KT P6SM SCT050
     FM301600 24014G22KT P6SM BKN070
     FM302300 22008KT P6SM SCT070=

USA.gov is the U.S. government's official web portal to all federal, state and local government web resources and services.